createdAt,value
2018-04-23T00:02:13.270Z,16.77
2018-04-23T00:04:46.686Z,16.66
2018-04-23T00:07:20.199Z,16.70
2018-04-23T00:09:54.426Z,16.61
2018-04-23T00:12:27.892Z,16.69
2018-04-23T00:15:01.314Z,16.70
2018-04-23T00:17:38.224Z,16.61
2018-04-23T00:20:11.602Z,16.58
2018-04-23T00:22:45.107Z,16.54
2018-04-23T00:25:18.722Z,16.45
2018-04-23T00:27:52.020Z,16.36
2018-04-23T00:30:25.435Z,16.33
2018-04-23T00:32:59.592Z,16.25
2018-04-23T00:35:32.939Z,16.27
2018-04-23T00:38:06.568Z,16.25
2018-04-23T00:40:40.631Z,16.24
2018-04-23T00:43:14.270Z,16.41
2018-04-23T00:45:47.864Z,16.44
2018-04-23T00:48:22.085Z,16.42
2018-04-23T00:50:56.764Z,16.42
2018-04-23T00:53:40.728Z,16.31
2018-04-23T00:56:14.052Z,16.23
2018-04-23T00:58:47.759Z,16.21
2018-04-23T01:01:21.461Z,16.14
2018-04-23T01:03:56.125Z,16.01
2018-04-23T01:06:29.409Z,15.98
2018-04-23T01:09:02.889Z,15.95
2018-04-23T01:11:36.322Z,15.94
2018-04-23T01:14:09.992Z,15.93
2018-04-23T01:16:43.391Z,15.87
2018-04-23T01:20:45.826Z,15.84
2018-04-23T01:23:19.122Z,15.76
2018-04-23T01:25:52.554Z,15.72
2018-04-23T01:28:26.062Z,15.70
2018-04-23T01:30:59.989Z,15.65
2018-04-23T01:33:33.304Z,15.68
2018-04-23T01:36:07.127Z,15.63
2018-04-23T01:38:40.392Z,15.58
2018-04-23T01:41:13.799Z,15.57
2018-04-23T01:43:48.384Z,15.53
2018-04-23T01:46:21.797Z,15.48
2018-04-23T01:48:55.046Z,15.50
2018-04-23T01:51:28.545Z,15.47
2018-04-23T01:54:02.226Z,15.47
2018-04-23T01:56:35.793Z,15.45
2018-04-23T01:59:09.350Z,15.43
2018-04-23T02:01:42.652Z,15.40
2018-04-23T02:04:16.350Z,15.37
2018-04-23T02:06:50.162Z,15.37
2018-04-23T02:09:23.431Z,15.36
2018-04-23T02:11:57.034Z,15.36
2018-04-23T02:14:31.136Z,15.29
2018-04-23T02:17:05.298Z,15.32
2018-04-23T02:19:38.764Z,15.24
2018-04-23T02:22:12.584Z,15.30
2018-04-23T02:24:46.648Z,15.23
2018-04-23T02:27:20.737Z,15.23
2018-04-23T02:29:54.784Z,15.18
2018-04-23T02:32:28.988Z,15.13
2018-04-23T02:35:04.021Z,15.08
2018-04-23T02:37:37.422Z,15.03
2018-04-23T02:40:10.761Z,14.99
2018-04-23T02:42:44.129Z,15.01
2018-04-23T02:45:18.006Z,15.01
2018-04-23T02:47:51.412Z,15.05
2018-04-23T02:50:26.150Z,15.01
2018-04-23T02:52:59.863Z,14.93
2018-04-23T02:55:33.171Z,14.96
2018-04-23T02:58:06.587Z,14.89
2018-04-23T03:00:40.042Z,14.84
2018-04-23T03:03:13.628Z,14.77
2018-04-23T03:05:47.014Z,14.73
2018-04-23T03:08:20.632Z,14.74
2018-04-23T03:10:54.434Z,14.69
2018-04-23T03:13:27.759Z,14.64
2018-04-23T03:16:01.628Z,14.57
2018-04-23T03:18:35.082Z,14.53
2018-04-23T03:21:08.456Z,14.50
2018-04-23T03:23:42.051Z,14.53
2018-04-23T03:26:15.563Z,14.59
2018-04-23T03:28:49.000Z,14.60
2018-04-23T03:31:22.862Z,14.60
2018-04-23T03:33:56.159Z,14.58
2018-04-23T03:36:29.471Z,14.53
2018-04-23T03:39:03.442Z,14.51
2018-04-23T03:41:36.837Z,14.50
2018-04-23T03:44:10.395Z,14.56
2018-04-23T03:46:43.975Z,14.55
2018-04-23T03:49:17.718Z,14.48
2018-04-23T03:51:51.045Z,14.59
2018-04-23T03:54:24.725Z,14.45
2018-04-23T03:56:58.181Z,14.42
2018-04-23T03:59:32.022Z,14.68
2018-04-23T04:02:05.679Z,14.76
2018-04-23T04:04:39.538Z,14.91
2018-04-23T04:07:12.975Z,15.03
2018-04-23T04:09:46.895Z,15.08
2018-04-23T04:12:30.308Z,15.19
2018-04-23T04:15:15.660Z,15.25
2018-04-23T04:18:00.763Z,15.37
2018-04-23T04:20:34.160Z,15.38
2018-04-23T04:23:07.678Z,15.46
2018-04-23T04:25:41.117Z,15.61
2018-04-23T04:28:15.143Z,15.66
2018-04-23T04:30:49.356Z,15.65
2018-04-23T04:33:22.835Z,15.76
2018-04-23T04:35:56.311Z,15.76
2018-04-23T04:38:30.723Z,15.88
2018-04-23T04:41:04.326Z,15.84
2018-04-23T04:43:37.621Z,15.84
2018-04-23T04:46:11.932Z,15.90
2018-04-23T04:48:46.430Z,16.00
2018-04-23T04:51:20.563Z,16.06
2018-04-23T04:53:54.340Z,16.15
2018-04-23T04:56:31.759Z,16.17
2018-04-23T04:59:05.665Z,16.17
2018-04-23T05:01:39.533Z,16.22
2018-04-23T05:04:15.719Z,16.15
2018-04-23T05:06:49.127Z,16.27
2018-04-23T05:09:22.911Z,16.30
2018-04-23T05:11:56.508Z,16.40
2018-04-23T05:14:30.238Z,16.43
2018-04-23T05:17:04.423Z,16.42
2018-04-23T05:19:38.200Z,16.46
2018-04-23T05:22:13.320Z,16.48
2018-04-23T05:24:47.914Z,16.26
2018-04-23T05:27:21.433Z,16.31
2018-04-23T05:29:56.124Z,16.53
2018-04-23T05:32:30.064Z,16.87
2018-04-23T05:35:07.643Z,17.28
2018-04-23T05:37:48.050Z,17.69
2018-04-23T05:40:21.714Z,17.84
2018-04-23T05:42:56.693Z,17.67
2018-04-23T05:45:31.928Z,17.51
2018-04-23T05:48:05.525Z,17.47
2018-04-23T05:50:39.604Z,17.49
2018-04-23T05:53:24.179Z,17.55
2018-04-23T05:55:59.369Z,17.94
2018-04-23T05:58:32.874Z,18.43
2018-04-23T06:01:07.725Z,18.70
2018-04-23T06:03:41.893Z,18.86
2018-04-23T06:06:19.597Z,19.02
2018-04-23T06:08:53.549Z,18.99
2018-04-23T06:11:27.052Z,19.03
2018-04-23T06:14:00.795Z,18.89
2018-04-23T06:16:34.377Z,18.80
2018-04-23T06:19:15.487Z,18.77
2018-04-23T06:21:48.872Z,18.92
2018-04-23T06:24:22.826Z,18.87
2018-04-23T06:26:57.363Z,19.05
2018-04-23T06:29:31.527Z,19.15
2018-04-23T06:32:05.685Z,19.36
2018-04-23T06:34:39.643Z,19.56
2018-04-23T06:37:13.047Z,19.70
2018-04-23T06:39:47.189Z,19.79
2018-04-23T06:42:20.561Z,19.79
2018-04-23T06:44:54.170Z,19.75
2018-04-23T06:47:27.969Z,19.81
2018-04-23T06:50:01.470Z,19.84
2018-04-23T06:52:34.947Z,20.07
2018-04-23T06:55:09.321Z,20.14
2018-04-23T06:57:42.800Z,20.39
2018-04-23T07:00:16.555Z,20.83
2018-04-23T07:03:21.018Z,21.04
2018-04-23T07:05:55.147Z,21.28
2018-04-23T07:08:31.168Z,21.29
2018-04-23T07:11:16.282Z,21.18
2018-04-23T07:16:13.942Z,21.06
2018-04-23T07:18:47.739Z,21.12
2018-04-23T07:21:21.685Z,21.37
2018-04-23T07:23:56.471Z,21.58
2018-04-23T07:26:31.604Z,21.75
2018-04-23T07:29:05.414Z,22.00
2018-04-23T07:31:39.554Z,22.30
2018-04-23T07:34:14.960Z,22.27
2018-04-23T07:36:49.219Z,22.01
2018-04-23T07:39:23.828Z,21.86
2018-04-23T07:41:58.938Z,21.71
2018-04-23T07:44:33.708Z,21.79
2018-04-23T07:47:07.731Z,21.74
2018-04-23T07:49:41.211Z,22.21
2018-04-23T07:52:15.688Z,22.34
2018-04-23T07:54:49.698Z,21.91
2018-04-23T07:57:23.190Z,21.88
2018-04-23T07:59:57.052Z,21.95
2018-04-23T08:02:32.184Z,22.12
2018-04-23T08:05:05.970Z,21.94
2018-04-23T08:07:39.682Z,22.00
2018-04-23T08:10:14.144Z,22.16
2018-04-23T08:12:48.480Z,22.35
2018-04-23T08:15:22.476Z,22.47
2018-04-23T08:17:56.868Z,22.72
2018-04-23T08:20:30.979Z,23.03
2018-04-23T08:23:05.087Z,22.65
2018-04-23T08:25:38.863Z,22.85
2018-04-23T08:28:12.145Z,23.23
2018-04-23T08:30:45.853Z,23.32
2018-04-23T08:33:20.631Z,22.58
2018-04-23T08:35:54.324Z,22.55
2018-04-23T08:38:28.984Z,22.23
2018-04-23T08:41:02.760Z,22.13
2018-04-23T08:43:37.797Z,22.03
2018-04-23T08:46:12.479Z,21.91
2018-04-23T08:48:46.432Z,21.93
2018-04-23T08:51:20.687Z,22.10
2018-04-23T08:53:54.660Z,22.23
2018-04-23T08:56:28.136Z,22.60
2018-04-23T08:59:03.187Z,22.88
2018-04-23T09:01:36.705Z,22.83
2018-04-23T09:04:10.556Z,22.69
2018-04-23T09:06:44.484Z,22.63
2018-04-23T09:09:18.424Z,22.27
2018-04-23T09:11:52.509Z,22.43
2018-04-23T09:14:26.352Z,22.43
2018-04-23T09:16:59.730Z,22.47
2018-04-23T09:19:33.464Z,22.40
2018-04-23T09:22:07.355Z,22.53
2018-04-23T09:24:41.988Z,22.64
2018-04-23T09:27:18.470Z,22.73
2018-04-23T09:29:51.897Z,22.73
2018-04-23T09:32:26.880Z,22.75
2018-04-23T09:35:00.274Z,23.11
2018-04-23T09:37:35.270Z,23.08
2018-04-23T09:40:09.695Z,23.38
2018-04-23T09:42:44.242Z,23.21
2018-04-23T09:45:17.963Z,23.34
2018-04-23T09:47:51.803Z,23.71
2018-04-23T09:50:25.502Z,23.70
2018-04-23T09:52:58.930Z,23.39
2018-04-23T09:55:32.506Z,23.49
2018-04-23T09:58:07.087Z,23.54
2018-04-23T10:00:44.193Z,23.79
2018-04-23T10:03:18.046Z,24.16
2018-04-23T10:05:53.379Z,24.20
2018-04-23T10:08:27.325Z,23.84
2018-04-23T10:11:01.321Z,23.94
2018-04-23T10:13:34.829Z,23.95
2018-04-23T10:16:10.526Z,23.91
2018-04-23T10:18:43.938Z,23.94
2018-04-23T10:21:18.247Z,24.48
2018-04-23T10:23:53.993Z,24.48
2018-04-23T10:26:27.382Z,24.20
2018-04-23T10:29:01.016Z,24.26
2018-04-23T10:31:37.872Z,24.13
2018-04-23T10:34:11.979Z,24.17
2018-04-23T10:36:45.855Z,23.88
2018-04-23T10:39:19.335Z,23.87
2018-04-23T10:41:53.305Z,23.96
2018-04-23T10:44:27.069Z,24.23
2018-04-23T10:47:00.598Z,24.22
2018-04-23T10:49:35.017Z,24.58
2018-04-23T10:52:08.484Z,24.70
2018-04-23T10:54:41.859Z,24.51
2018-04-23T10:57:16.657Z,24.31
2018-04-23T10:59:50.606Z,24.91
2018-04-23T11:02:24.181Z,25.11
2018-04-23T11:04:58.682Z,25.04
2018-04-23T11:07:32.663Z,25.44
2018-04-23T11:10:06.428Z,25.69
2018-04-23T11:12:40.977Z,25.82
2018-04-23T11:15:16.735Z,25.42
2018-04-23T11:17:53.216Z,25.56
2018-04-23T11:20:27.252Z,25.63
2018-04-23T11:23:02.211Z,25.31
2018-04-23T11:25:36.048Z,25.10
2018-04-23T11:28:09.575Z,24.91
2018-04-23T11:30:46.193Z,24.87
2018-04-23T11:33:21.668Z,25.27
2018-04-23T11:35:55.667Z,25.40
2018-04-23T11:38:31.585Z,25.27
2018-04-23T11:41:06.752Z,25.21
2018-04-23T11:43:41.038Z,25.04
2018-04-23T11:46:16.967Z,25.16
2018-04-23T11:48:51.031Z,25.03
2018-04-23T11:51:24.685Z,24.86
2018-04-23T11:53:58.323Z,25.08
2018-04-23T11:56:32.539Z,25.25
2018-04-23T11:59:06.757Z,25.50
2018-04-23T12:01:41.007Z,25.49
2018-04-23T12:04:15.079Z,25.70
2018-04-23T12:06:50.238Z,25.45
2018-04-23T12:09:25.067Z,24.91
2018-04-23T12:11:58.535Z,24.89
2018-04-23T12:14:32.357Z,24.75
2018-04-23T12:17:07.494Z,24.57
2018-04-23T12:19:41.249Z,24.63
2018-04-23T12:22:15.791Z,24.58
2018-04-23T12:24:52.074Z,24.48
2018-04-23T12:27:29.253Z,23.86
2018-04-23T12:30:10.643Z,24.01
2018-04-23T12:35:19.507Z,23.93
2018-04-23T12:38:03.117Z,24.10
2018-04-23T12:40:50.181Z,24.16
2018-04-23T12:43:30.686Z,24.37
2018-04-23T12:46:06.441Z,24.07
2018-04-23T12:48:41.457Z,24.47
2018-04-23T12:51:19.600Z,24.18
2018-04-23T12:53:58.417Z,23.91
2018-04-23T12:56:33.563Z,23.81
2018-04-23T12:59:07.361Z,24.15
2018-04-23T13:01:43.863Z,24.43
2018-04-23T13:04:17.941Z,24.90
2018-04-23T13:06:56.287Z,24.98
2018-04-23T13:09:32.745Z,25.43
2018-04-23T13:12:11.844Z,25.62
2018-04-23T13:14:50.360Z,25.44
2018-04-23T13:17:35.230Z,25.38
2018-04-23T13:20:11.797Z,25.25
2018-04-23T13:22:56.908Z,25.17
2018-04-23T13:25:33.663Z,25.27
2018-04-23T13:28:12.123Z,25.32
2018-04-23T13:30:50.437Z,25.03
2018-04-23T13:33:44.565Z,24.72
2018-04-23T13:36:25.750Z,24.37
2018-04-23T13:39:03.399Z,21.46
2018-04-23T13:41:42.467Z,21.23
2018-04-23T13:44:24.928Z,21.57
2018-04-23T13:47:02.137Z,21.93
2018-04-23T13:49:47.954Z,22.18
2018-04-23T13:52:27.103Z,22.32
2018-04-23T13:55:03.089Z,22.36
2018-04-23T13:57:39.732Z,22.06
2018-04-23T14:00:14.815Z,21.44
2018-04-23T14:02:51.580Z,21.52
2018-04-23T14:05:33.552Z,21.72
2018-04-23T14:10:54.689Z,21.53
2018-04-23T14:13:34.273Z,21.79
2018-04-23T14:16:09.309Z,21.79
2018-04-23T14:18:44.675Z,21.29
2018-04-23T14:21:23.421Z,21.37
2018-04-23T14:23:57.554Z,21.13
2018-04-23T14:26:33.412Z,21.39
2018-04-23T14:30:36.539Z,21.03
2018-04-23T14:33:14.046Z,21.25
2018-04-23T14:35:48.236Z,21.29
2018-04-23T14:38:23.444Z,21.29
2018-04-23T14:41:00.148Z,21.09
2018-04-23T14:43:35.490Z,21.05
2018-04-23T14:46:10.956Z,21.05
2018-04-23T14:48:46.080Z,20.71
2018-04-23T14:51:28.045Z,20.38
2018-04-23T14:54:06.145Z,20.31
2018-04-23T14:56:42.465Z,20.63
2018-04-23T14:59:17.868Z,20.68
2018-04-23T15:01:52.752Z,20.84
2018-04-23T15:04:28.514Z,20.47
2018-04-23T15:07:08.667Z,20.38
2018-04-23T15:09:44.294Z,20.31
2018-04-23T15:12:20.009Z,20.66
2018-04-23T15:14:55.695Z,21.13
2018-04-23T15:17:33.428Z,21.19
2018-04-23T15:20:07.820Z,21.12
2018-04-23T15:22:42.562Z,21.15
2018-04-23T15:25:18.761Z,21.06
2018-04-23T15:27:52.892Z,20.93
2018-04-23T15:30:33.250Z,20.88
2018-04-23T15:33:10.690Z,20.50
2018-04-23T15:35:44.904Z,20.15
2018-04-23T15:38:21.870Z,20.06
2018-04-23T15:40:56.139Z,20.13
2018-04-23T15:46:14.683Z,20.13
2018-04-23T15:48:53.218Z,20.35
2018-04-23T15:51:33.229Z,20.52
2018-04-23T15:54:07.095Z,20.62
2018-04-23T15:56:42.140Z,20.56
2018-04-23T15:59:16.388Z,20.37
2018-04-23T16:01:52.083Z,20.24
2018-04-23T16:04:25.810Z,20.25
2018-04-23T16:07:01.158Z,20.03
2018-04-23T16:09:35.549Z,20.09
2018-04-23T16:12:09.325Z,20.12
2018-04-23T16:14:49.574Z,20.25
2018-04-23T16:17:28.711Z,20.30
2018-04-23T16:20:08.113Z,20.24
2018-04-23T16:22:45.091Z,20.08
2018-04-23T16:25:24.617Z,20.14
2018-04-23T16:44:44.750Z,19.84
2018-04-23T16:47:21.824Z,19.90
2018-04-23T16:52:56.144Z,19.51
2018-04-23T16:55:49.489Z,19.22
2018-04-23T16:58:30.754Z,19.32
2018-04-23T17:01:10.145Z,19.47
2018-04-23T17:03:46.312Z,19.61
2018-04-23T17:06:28.255Z,19.82
2018-04-23T17:09:04.656Z,19.93
2018-04-23T17:11:39.296Z,20.10
2018-04-23T17:14:14.727Z,20.19
2018-04-23T17:16:54.888Z,20.00
2018-04-23T17:19:32.262Z,19.69
2018-04-23T17:22:07.421Z,19.73
2018-04-23T17:24:47.289Z,19.64
2018-04-23T17:27:25.382Z,19.53
2018-04-23T17:29:59.125Z,19.39
2018-04-23T17:32:36.032Z,19.37
2018-04-23T17:35:10.198Z,19.21
2018-04-23T17:37:48.852Z,19.08
2018-04-23T17:40:29.577Z,19.00
2018-04-23T17:43:07.480Z,18.84
2018-04-23T17:45:47.715Z,18.72
2018-04-23T17:48:23.337Z,18.56
2018-04-23T17:51:04.290Z,18.54
2018-04-23T17:53:39.280Z,18.48
2018-04-23T17:57:57.435Z,18.48
2018-04-23T18:00:33.337Z,18.30
2018-04-23T18:03:17.844Z,18.24
2018-04-23T18:05:52.989Z,18.13
2018-04-23T18:08:47.077Z,18.07
2018-04-23T18:11:27.708Z,18.01
2018-04-23T18:14:05.646Z,17.89
2018-04-23T18:16:52.707Z,17.65
2018-04-23T18:19:47.741Z,17.47
2018-04-23T18:22:31.683Z,17.34
2018-04-23T18:28:15.037Z,17.06
2018-04-23T18:30:55.940Z,17.08
2018-04-23T18:33:33.378Z,17.34
2018-04-23T18:36:11.784Z,17.52
2018-04-23T18:38:46.249Z,17.53
2018-04-23T18:41:21.134Z,17.44
2018-04-23T18:44:00.644Z,17.17
2018-04-23T18:46:40.423Z,17.02
2018-04-23T18:49:14.549Z,16.78
2018-04-23T18:51:52.692Z,16.62
2018-04-23T18:54:26.994Z,16.53
2018-04-23T18:57:03.026Z,16.47
2018-04-23T18:59:36.800Z,16.41
2018-04-23T19:02:10.783Z,16.27
2018-04-23T19:04:44.311Z,16.21
2018-04-23T19:07:21.823Z,16.19
2018-04-23T19:09:56.899Z,16.17
2018-04-23T19:12:30.142Z,16.11
2018-04-23T19:15:04.066Z,16.08
2018-04-23T19:17:37.665Z,16.15
2018-04-23T19:20:11.317Z,16.18
2018-04-23T19:22:45.290Z,16.08
2018-04-23T19:25:19.103Z,16.03
2018-04-23T19:27:52.337Z,15.88
2018-04-23T19:30:26.630Z,15.71
2018-04-23T19:33:00.353Z,15.63
2018-04-23T19:35:34.011Z,15.53
2018-04-23T19:38:07.606Z,15.47
2018-04-23T19:40:41.029Z,15.41
2018-04-23T19:43:16.925Z,15.35
2018-04-23T19:46:01.732Z,15.25
2018-04-23T19:48:36.491Z,15.23
2018-04-23T19:51:12.573Z,15.27
2018-04-23T19:53:45.949Z,15.24
2018-04-23T19:56:20.424Z,15.13
2018-04-23T19:58:54.165Z,15.03
2018-04-23T20:01:27.592Z,14.95
2018-04-23T20:04:01.573Z,14.91
2018-04-23T20:06:35.699Z,14.90
2018-04-23T20:09:09.133Z,14.92
2018-04-23T20:11:43.341Z,14.85
2018-04-23T20:14:17.959Z,14.84
2018-04-23T20:16:51.697Z,14.77
2018-04-23T20:19:25.336Z,14.73
2018-04-23T20:21:59.014Z,14.70
2018-04-23T20:24:32.433Z,14.65
2018-04-23T20:27:07.494Z,14.64
2018-04-23T20:29:41.156Z,14.58
2018-04-23T20:32:14.472Z,14.54
2018-04-23T20:34:50.181Z,14.41
2018-04-23T20:37:26.176Z,14.35
2018-04-23T20:40:01.226Z,14.29
2018-04-23T20:42:37.294Z,14.26
2018-04-23T20:45:11.153Z,14.20
2018-04-23T20:47:44.863Z,14.19
2018-04-23T20:50:18.474Z,14.14
2018-04-23T20:52:51.945Z,14.02
2018-04-23T20:55:25.659Z,13.98
2018-04-23T20:57:59.626Z,13.99
2018-04-23T21:00:33.027Z,13.96
2018-04-23T21:03:06.761Z,13.92
2018-04-23T21:05:40.458Z,13.84
2018-04-23T21:08:14.165Z,13.79
2018-04-23T21:10:47.761Z,13.80
2018-04-23T21:13:21.289Z,13.81
2018-04-23T21:15:54.589Z,13.79
2018-04-23T21:18:30.672Z,13.82
2018-04-23T21:21:04.493Z,14.03
2018-04-23T21:23:37.829Z,14.22
2018-04-23T21:26:11.599Z,14.22
2018-04-23T21:28:46.272Z,14.23
2018-04-23T21:31:20.041Z,14.28
2018-04-23T21:33:53.493Z,14.38
2018-04-23T21:36:27.193Z,14.30
2018-04-23T21:39:00.564Z,14.08
2018-04-23T21:41:34.168Z,13.86
2018-04-23T21:44:07.463Z,13.68
2018-04-23T21:46:40.929Z,13.56
2018-04-23T21:49:15.106Z,13.51
2018-04-23T21:51:49.777Z,13.38
2018-04-23T21:54:23.486Z,13.40
2018-04-23T21:56:56.994Z,13.39
2018-04-23T21:59:31.610Z,13.35
2018-04-23T22:02:05.143Z,13.31
2018-04-23T22:04:38.937Z,13.27
2018-04-23T22:07:12.457Z,13.19
2018-04-23T22:09:45.795Z,13.11
2018-04-23T22:12:19.223Z,13.13
2018-04-23T22:14:52.628Z,13.20
2018-04-23T22:17:26.096Z,13.11
2018-04-23T22:19:59.535Z,13.10
2018-04-23T22:22:32.824Z,13.00
2018-04-23T22:25:06.153Z,12.91
2018-04-23T22:27:40.907Z,12.85
2018-04-23T22:30:14.213Z,12.84
2018-04-23T22:32:47.710Z,12.78
2018-04-23T22:35:21.311Z,12.72
2018-04-23T22:37:54.561Z,12.64
2018-04-23T22:40:27.887Z,12.58
2018-04-23T22:43:01.436Z,12.48
2018-04-23T22:45:35.145Z,12.38
2018-04-23T22:48:08.528Z,12.42
2018-04-23T22:50:42.040Z,12.37
2018-04-23T22:53:15.631Z,12.37
2018-04-23T22:55:49.436Z,12.31
2018-04-23T22:58:22.937Z,12.25
2018-04-23T23:00:56.666Z,12.25
2018-04-23T23:03:30.220Z,12.18
2018-04-23T23:06:04.229Z,12.16
2018-04-23T23:08:37.514Z,12.10
2018-04-23T23:11:12.512Z,12.06
2018-04-23T23:13:45.933Z,12.08
2018-04-23T23:16:19.250Z,12.06
2018-04-23T23:18:52.605Z,12.04
2018-04-23T23:21:27.709Z,12.01
2018-04-23T23:24:02.849Z,11.99
2018-04-23T23:26:36.309Z,11.97
2018-04-23T23:29:09.663Z,11.97
2018-04-23T23:31:43.767Z,11.99
2018-04-23T23:34:17.181Z,11.96
2018-04-23T23:36:50.523Z,11.88
2018-04-23T23:39:23.985Z,11.89
2018-04-23T23:41:57.329Z,11.89
2018-04-23T23:44:30.661Z,11.87
2018-04-23T23:47:04.119Z,11.87
2018-04-23T23:49:37.488Z,11.83
2018-04-23T23:52:10.907Z,11.82
2018-04-23T23:54:44.188Z,11.78
2018-04-23T23:57:17.621Z,11.77
2018-04-23T23:59:51.158Z,11.71
